createdAt,value
2022-09-20T00:00:40.479Z,1.67
2022-09-20T00:03:07.987Z,1.88
2022-09-20T00:05:35.825Z,1.65
2022-09-20T00:08:03.540Z,1.67
2022-09-20T00:10:33.950Z,2.10
2022-09-20T00:13:07.114Z,1.67
2022-09-20T00:15:34.334Z,1.88
2022-09-20T00:18:01.640Z,2.50
2022-09-20T00:20:28.685Z,1.65
2022-09-20T00:22:55.934Z,1.63
2022-09-20T00:25:23.054Z,1.75
2022-09-20T00:27:50.153Z,1.65
2022-09-20T00:30:17.295Z,2.30
2022-09-20T00:32:44.373Z,1.88
2022-09-20T00:35:11.423Z,1.60
2022-09-20T00:37:40.028Z,1.80
2022-09-20T00:40:09.266Z,1.83
2022-09-20T00:42:36.691Z,1.90
2022-09-20T00:45:19.958Z,1.70
2022-09-20T00:47:52.831Z,1.60
2022-09-20T00:50:33.296Z,1.73
2022-09-20T00:53:03.004Z,1.90
2022-09-20T00:55:30.479Z,1.75
2022-09-20T00:57:57.759Z,1.83
2022-09-20T01:00:24.914Z,1.63
2022-09-20T01:02:54.488Z,1.38
2022-09-20T01:05:21.897Z,1.80
2022-09-20T01:07:49.911Z,1.63
2022-09-20T01:10:17.016Z,1.80
2022-09-20T01:12:45.948Z,1.80
2022-09-20T01:15:15.458Z,1.77
2022-09-20T01:17:47.606Z,1.85
2022-09-20T01:20:16.833Z,1.65
2022-09-20T01:23:02.624Z,1.73
2022-09-20T01:25:48.596Z,1.80
2022-09-20T01:28:16.132Z,2.05
2022-09-20T01:30:45.623Z,2.00
2022-09-20T01:33:35.485Z,1.70
2022-09-20T01:36:04.547Z,1.83
2022-09-20T01:38:38.091Z,1.83
2022-09-20T01:41:05.925Z,1.70
2022-09-20T01:43:52.041Z,2.00
2022-09-20T01:46:24.550Z,1.55
2022-09-20T01:48:52.605Z,1.83
2022-09-20T01:51:40.250Z,2.42
2022-09-20T01:54:16.978Z,1.65
2022-09-20T01:56:55.958Z,2.30
2022-09-20T01:59:39.262Z,2.55
2022-09-20T02:02:10.738Z,1.83
2022-09-20T02:04:56.415Z,1.67
2022-09-20T02:07:38.995Z,1.75
2022-09-20T02:10:15.664Z,2.30
2022-09-20T02:13:07.552Z,2.28
2022-09-20T02:15:36.435Z,1.90
2022-09-20T02:18:40.698Z,2.05
2022-09-20T02:21:10.881Z,2.05
2022-09-20T02:23:52.692Z,1.63
2022-09-20T02:26:25.681Z,1.85
2022-09-20T02:28:55.379Z,1.77
2022-09-20T02:31:42.755Z,1.77
2022-09-20T02:34:29.191Z,2.05
2022-09-20T02:37:14.833Z,1.67
2022-09-20T02:40:00.742Z,2.35
2022-09-20T02:42:34.658Z,1.92
2022-09-20T02:45:07.695Z,1.90
2022-09-20T02:47:38.987Z,1.92
2022-09-20T02:50:18.239Z,1.52
2022-09-20T02:53:04.197Z,2.08
2022-09-20T02:55:38.825Z,1.65
2022-09-20T02:58:23.707Z,2.17
2022-09-20T03:01:09.483Z,1.98
2022-09-20T03:03:47.509Z,1.98
2022-09-20T03:06:39.954Z,2.00
2022-09-20T03:09:25.210Z,1.83
2022-09-20T03:12:00.465Z,1.83
2022-09-20T03:14:30.607Z,2.17
2022-09-20T03:17:26.979Z,1.45
2022-09-20T03:20:09.145Z,2.08
2022-09-20T03:22:49.922Z,1.92
2022-09-20T03:25:26.836Z,2.10
2022-09-20T03:28:15.833Z,1.90
2022-09-20T03:33:18.648Z,1.92
2022-09-20T03:36:08.602Z,1.90
2022-09-20T03:38:56.365Z,2.00
2022-09-20T03:41:44.252Z,2.22
2022-09-20T03:44:19.851Z,2.20
2022-09-20T03:46:48.150Z,2.08
2022-09-20T03:49:53.576Z,1.92
2022-09-20T03:52:26.898Z,2.20
2022-09-20T03:55:06.212Z,1.95
2022-09-20T03:57:52.466Z,1.83
2022-09-20T04:00:24.427Z,2.13
2022-09-20T04:03:12.502Z,1.90
2022-09-20T04:05:58.354Z,1.92
2022-09-20T04:08:40.367Z,3.00
2022-09-20T04:11:12.066Z,1.90
2022-09-20T04:13:40.974Z,2.10
2022-09-20T04:16:14.487Z,2.50
2022-09-20T04:18:41.530Z,1.83
2022-09-20T04:21:39.271Z,1.90
2022-09-20T04:24:26.275Z,1.90
2022-09-20T04:26:57.924Z,2.85
2022-09-20T04:29:28.023Z,2.10
2022-09-20T04:32:20.248Z,1.80
2022-09-20T04:35:23.859Z,1.88
2022-09-20T04:37:54.210Z,1.92
2022-09-20T04:43:00.465Z,2.22
2022-09-20T04:45:37.776Z,2.25
2022-09-20T04:48:04.882Z,2.20
2022-09-20T04:50:54.502Z,2.17
2022-09-20T04:53:21.710Z,2.10
2022-09-20T04:56:01.867Z,1.85
2022-09-20T04:58:47.351Z,1.92
2022-09-20T05:01:19.453Z,2.13
2022-09-20T05:03:59.602Z,2.28
2022-09-20T05:06:30.119Z,2.22
2022-09-20T05:09:02.952Z,2.10
2022-09-20T05:11:54.642Z,1.92
2022-09-20T05:17:11.519Z,2.70
2022-09-20T05:19:46.411Z,2.67
2022-09-20T05:22:44.752Z,2.33
2022-09-20T05:25:24.223Z,2.20
2022-09-20T05:27:57.562Z,2.20
2022-09-20T05:30:28.330Z,3.30
2022-09-20T05:33:05.730Z,3.05
2022-09-20T05:35:51.543Z,3.35
2022-09-20T05:38:21.962Z,3.05
2022-09-20T05:40:52.039Z,2.83
2022-09-20T05:43:45.190Z,2.58
2022-09-20T05:46:18.507Z,3.22
2022-09-20T05:48:45.548Z,2.88
2022-09-20T05:51:31.906Z,3.30
2022-09-20T05:54:08.650Z,2.67
2022-09-20T05:56:44.763Z,2.70
2022-09-20T05:59:28.516Z,2.55
2022-09-20T06:02:07.659Z,2.55
2022-09-20T06:04:42.606Z,2.15
2022-09-20T06:07:22.782Z,2.75
2022-09-20T06:10:10.086Z,3.17
2022-09-20T06:12:44.437Z,3.08
2022-09-20T06:15:21.408Z,2.80
2022-09-20T06:18:09.119Z,2.60
2022-09-20T06:21:14.588Z,2.88
2022-09-20T06:23:41.846Z,3.00
2022-09-20T06:26:14.678Z,2.95
2022-09-20T06:28:43.589Z,2.92
2022-09-20T06:31:11.382Z,3.13
2022-09-20T06:33:47.116Z,2.83
2022-09-20T06:36:44.078Z,2.97
2022-09-20T06:39:41.190Z,3.03
2022-09-20T06:42:10.306Z,3.13
2022-09-20T06:44:41.090Z,2.95
2022-09-20T06:47:09.962Z,2.92
2022-09-20T06:49:37.575Z,3.25
2022-09-20T06:52:05.818Z,2.83
2022-09-20T06:54:33.491Z,3.10
2022-09-20T06:57:03.531Z,3.20
2022-09-20T06:59:30.867Z,2.80
2022-09-20T07:01:57.751Z,3.10
2022-09-20T07:04:26.733Z,2.40
2022-09-20T07:07:00.270Z,2.75
2022-09-20T07:09:28.062Z,2.85
2022-09-20T07:11:56.461Z,3.58
2022-09-20T07:14:24.070Z,2.90
2022-09-20T07:16:51.183Z,2.92
2022-09-20T07:19:18.286Z,2.55
2022-09-20T07:21:45.796Z,2.50
2022-09-20T07:24:15.879Z,3.10
2022-09-20T07:29:10.472Z,2.33
2022-09-20T07:31:37.774Z,2.33
2022-09-20T07:34:05.105Z,2.50
2022-09-20T07:36:32.571Z,2.40
2022-09-20T07:38:59.851Z,1.80
2022-09-20T07:41:32.447Z,1.98
2022-09-20T07:44:19.466Z,1.88
2022-09-20T07:46:48.575Z,1.63
2022-09-20T07:49:15.702Z,1.55
2022-09-20T07:51:42.826Z,1.63
2022-09-20T07:54:09.975Z,2.03
2022-09-20T07:56:36.686Z,1.45
2022-09-20T07:59:03.795Z,1.85
2022-09-20T08:01:30.914Z,1.63
2022-09-20T08:03:58.004Z,1.60
2022-09-20T08:06:26.460Z,1.52
2022-09-20T08:08:54.374Z,1.17
2022-09-20T08:11:28.817Z,1.75
2022-09-20T08:14:06.269Z,1.45
2022-09-20T08:16:40.938Z,1.75
2022-09-20T08:19:08.676Z,1.80
2022-09-20T08:21:38.752Z,1.27
2022-09-20T08:26:35.855Z,1.40
2022-09-20T08:29:05.166Z,1.40
2022-09-20T08:31:47.097Z,1.33
2022-09-20T08:34:15.364Z,1.38
2022-09-20T08:36:47.258Z,1.13
2022-09-20T08:42:05.409Z,1.20
2022-09-20T08:44:35.877Z,1.88
2022-09-20T08:47:03.047Z,1.20
2022-09-20T08:49:30.694Z,1.40
2022-09-20T08:51:58.862Z,1.52
2022-09-20T08:54:32.111Z,1.10
2022-09-20T08:57:05.299Z,1.27
2022-09-20T08:59:32.673Z,1.38
2022-09-20T09:01:59.977Z,1.20
2022-09-20T09:04:35.719Z,1.58
2022-09-20T09:07:03.084Z,0.93
2022-09-20T09:09:37.619Z,1.00
2022-09-20T09:12:05.111Z,1.10
2022-09-20T09:15:11.211Z,0.95
2022-09-20T09:20:14.380Z,1.25
2022-09-20T09:22:44.054Z,1.10
2022-09-20T09:25:19.720Z,1.05
2022-09-20T09:27:55.523Z,1.10
2022-09-20T09:30:29.306Z,0.90
2022-09-20T09:33:15.406Z,1.35
2022-09-20T09:35:42.803Z,1.13
2022-09-20T09:38:21.420Z,1.13
2022-09-20T09:40:54.441Z,0.80
2022-09-20T09:43:26.954Z,0.95
2022-09-20T09:45:54.678Z,1.42
2022-09-20T09:48:32.827Z,0.90
2022-09-20T09:51:15.305Z,0.98
2022-09-20T09:53:43.273Z,0.98
2022-09-20T09:56:32.268Z,1.10
2022-09-20T09:59:10.819Z,1.17
2022-09-20T10:02:00.794Z,1.17
2022-09-20T10:04:56.164Z,1.60
2022-09-20T10:07:40.404Z,0.95
2022-09-20T10:10:32.321Z,1.25
2022-09-20T10:13:28.140Z,1.23
2022-09-20T10:16:08.229Z,1.35
2022-09-20T10:19:03.772Z,1.15
2022-09-20T10:21:50.894Z,1.40
2022-09-20T10:24:31.015Z,1.20
2022-09-20T10:27:13.041Z,1.08
2022-09-20T10:29:42.511Z,1.23
2022-09-20T10:32:45.960Z,1.23
2022-09-20T10:35:18.795Z,0.82
2022-09-20T10:38:00.781Z,1.05
2022-09-20T10:40:58.391Z,1.35
2022-09-20T10:43:47.180Z,1.17
2022-09-20T10:46:38.706Z,1.10
2022-09-20T10:49:18.033Z,1.15
2022-09-20T10:52:10.184Z,1.30
2022-09-20T10:54:49.759Z,1.10
2022-09-20T10:57:25.996Z,1.13
2022-09-20T11:00:17.192Z,1.10
2022-09-20T11:03:15.104Z,1.00
2022-09-20T11:06:15.494Z,0.85
2022-09-20T11:08:43.744Z,0.98
2022-09-20T11:11:27.559Z,1.17
2022-09-20T11:13:54.919Z,1.00
2022-09-20T11:16:32.951Z,1.10
2022-09-20T11:19:03.404Z,0.80
2022-09-20T11:21:50.690Z,0.90
2022-09-20T11:24:34.996Z,1.48
2022-09-20T11:27:07.947Z,1.08
2022-09-20T11:29:44.042Z,1.13
2022-09-20T11:34:56.852Z,0.90
2022-09-20T11:37:33.771Z,1.20
2022-09-20T11:40:09.811Z,0.90
2022-09-20T11:42:40.171Z,1.27
2022-09-20T11:45:07.505Z,0.98
2022-09-20T11:47:55.069Z,1.17
2022-09-20T11:50:44.264Z,0.73
2022-09-20T11:53:36.794Z,1.50
2022-09-20T11:56:29.056Z,0.93
2022-09-20T11:58:59.356Z,0.77
2022-09-20T12:01:33.016Z,0.98
2022-09-20T12:04:31.979Z,0.88
2022-09-20T12:07:09.765Z,0.82
2022-09-20T12:09:42.292Z,1.20
2022-09-20T12:12:42.072Z,0.95
2022-09-20T12:15:39.173Z,0.95
2022-09-20T12:18:15.351Z,0.90
2022-09-20T12:23:44.558Z,0.93
2022-09-20T12:26:13.213Z,0.90
2022-09-20T12:28:51.766Z,1.15
2022-09-20T12:31:18.439Z,1.30
2022-09-20T12:34:10.390Z,1.10
2022-09-20T12:37:04.948Z,1.05
2022-09-20T12:42:10.951Z,1.13
2022-09-20T12:44:49.680Z,1.10
2022-09-20T12:47:20.726Z,1.20
2022-09-20T12:50:06.689Z,1.05
2022-09-20T12:52:57.094Z,1.20
2022-09-20T12:55:34.902Z,1.02
2022-09-20T12:58:14.290Z,1.13
2022-09-20T13:00:45.047Z,1.00
2022-09-20T13:03:45.626Z,1.10
2022-09-20T13:06:18.975Z,1.10
2022-09-20T13:08:50.121Z,1.30
2022-09-20T13:11:23.428Z,1.23
2022-09-20T13:13:50.488Z,1.17
2022-09-20T13:16:27.331Z,1.20
2022-09-20T13:19:01.439Z,1.33
2022-09-20T13:21:28.353Z,1.58
2022-09-20T13:23:55.333Z,1.40
2022-09-20T13:26:27.617Z,1.20
2022-09-20T13:28:56.997Z,1.30
2022-09-20T13:31:29.874Z,1.23
2022-09-20T13:34:13.445Z,1.23
2022-09-20T13:36:40.978Z,1.27
2022-09-20T13:39:08.734Z,1.33
2022-09-20T13:41:36.520Z,1.00
2022-09-20T13:44:03.687Z,1.52
2022-09-20T13:46:32.516Z,1.02
2022-09-20T13:49:21.387Z,1.40
2022-09-20T13:51:52.167Z,1.02
2022-09-20T13:54:27.800Z,1.60
2022-09-20T13:56:58.794Z,1.13
2022-09-20T13:59:28.936Z,1.30
2022-09-20T14:01:56.337Z,1.65
2022-09-20T14:04:25.687Z,1.20
2022-09-20T14:06:54.838Z,1.17
2022-09-20T14:09:28.716Z,1.20
2022-09-20T14:11:56.358Z,1.08
2022-09-20T14:14:24.831Z,1.27
2022-09-20T14:16:54.528Z,1.35
2022-09-20T14:19:27.156Z,1.52
2022-09-20T14:21:59.020Z,0.93
2022-09-20T14:24:31.785Z,1.10
2022-09-20T14:27:19.658Z,1.42
2022-09-20T14:29:48.976Z,1.35
2022-09-20T14:32:27.853Z,1.33
2022-09-20T14:35:14.767Z,1.45
2022-09-20T14:37:49.709Z,1.20
2022-09-20T14:40:47.091Z,1.40
2022-09-20T14:43:28.606Z,1.33
2022-09-20T14:46:03.101Z,1.02
2022-09-20T14:48:33.587Z,1.25
2022-09-20T14:51:16.039Z,1.10
2022-09-20T14:53:43.885Z,0.90
2022-09-20T14:56:12.580Z,1.10
2022-09-20T14:59:03.274Z,1.23
2022-09-20T15:01:30.338Z,1.10
2022-09-20T15:03:58.283Z,1.55
2022-09-20T15:06:25.716Z,1.40
2022-09-20T15:08:53.042Z,1.23
2022-09-20T15:11:20.433Z,1.17
2022-09-20T15:13:47.604Z,1.48
2022-09-20T15:16:17.454Z,1.05
2022-09-20T15:21:12.114Z,1.10
2022-09-20T15:23:39.811Z,1.33
2022-09-20T15:26:08.775Z,1.10
2022-09-20T15:28:35.839Z,1.35
2022-09-20T15:31:02.956Z,1.30
2022-09-20T15:33:30.811Z,1.33
2022-09-20T15:36:02.374Z,1.27
2022-09-20T15:38:29.663Z,1.92
2022-09-20T15:40:56.434Z,2.28
2022-09-20T15:43:26.627Z,1.20
2022-09-20T15:45:56.181Z,1.58
2022-09-20T15:48:25.052Z,2.63
2022-09-20T15:50:58.512Z,2.50
2022-09-20T15:53:25.569Z,1.65
2022-09-20T15:55:53.258Z,1.45
2022-09-20T15:58:21.571Z,1.85
2022-09-20T16:00:49.819Z,1.52
2022-09-20T16:03:17.396Z,1.80
2022-09-20T16:05:44.546Z,1.20
2022-09-20T16:08:11.593Z,1.92
2022-09-20T16:10:46.167Z,2.22
2022-09-20T16:13:14.196Z,2.08
2022-09-20T16:15:42.277Z,6.25
2022-09-20T16:18:27.637Z,3.20
2022-09-20T16:20:54.694Z,2.45
2022-09-20T16:23:25.920Z,1.98
2022-09-20T16:25:54.817Z,1.85
2022-09-20T16:28:21.484Z,1.98
2022-09-20T16:30:56.265Z,1.70
2022-09-20T16:33:23.516Z,2.33
2022-09-20T16:35:50.573Z,1.77
2022-09-20T16:38:18.158Z,1.60
2022-09-20T16:40:49.331Z,1.58
2022-09-20T16:43:20.272Z,1.42
2022-09-20T16:45:47.987Z,1.38
2022-09-20T16:48:15.058Z,1.20
2022-09-20T16:50:42.155Z,1.42
2022-09-20T16:53:09.197Z,1.33
2022-09-20T16:55:36.223Z,1.42
2022-09-20T16:58:03.498Z,1.85
2022-09-20T17:00:33.029Z,1.52
2022-09-20T17:02:59.775Z,1.45
2022-09-20T17:05:26.911Z,1.60
2022-09-20T17:07:55.310Z,1.67
2022-09-20T17:10:24.455Z,1.60
2022-09-20T17:12:57.438Z,1.70
2022-09-20T17:15:27.283Z,2.38
2022-09-20T17:17:54.366Z,2.45
2022-09-20T17:20:23.289Z,1.90
2022-09-20T17:22:50.119Z,1.75
2022-09-20T17:25:16.801Z,1.77
2022-09-20T17:27:44.025Z,2.03
2022-09-20T17:30:10.960Z,2.20
2022-09-20T17:32:38.132Z,1.85
2022-09-20T17:35:05.738Z,1.75
2022-09-20T17:37:33.027Z,2.17
2022-09-20T17:40:01.829Z,1.65
2022-09-20T17:42:29.752Z,1.90
2022-09-20T17:44:56.836Z,1.83
2022-09-20T17:47:24.850Z,2.42
2022-09-20T17:49:52.207Z,2.72
2022-09-20T17:52:19.431Z,3.78
2022-09-20T17:54:46.542Z,5.65
2022-09-20T17:57:13.666Z,6.63
2022-09-20T17:59:40.768Z,6.38
2022-09-20T18:02:08.102Z,6.38
2022-09-20T18:04:35.269Z,5.55
2022-09-20T18:07:03.530Z,5.47
2022-09-20T18:09:30.645Z,4.55
2022-09-20T18:11:57.953Z,3.90
2022-09-20T18:14:27.221Z,3.38
2022-09-20T18:16:55.802Z,3.20
2022-09-20T18:19:23.026Z,3.22
2022-09-20T18:21:50.606Z,4.40
2022-09-20T18:24:17.696Z,3.75
2022-09-20T18:26:44.793Z,3.70
2022-09-20T18:29:17.704Z,4.18
2022-09-20T18:31:55.491Z,5.55
2022-09-20T18:34:23.593Z,4.00
2022-09-20T18:36:54.900Z,4.15
2022-09-20T18:39:27.152Z,5.65
2022-09-20T18:41:54.663Z,5.97
2022-09-20T18:44:24.556Z,5.20
2022-09-20T18:46:54.908Z,5.07
2022-09-20T18:49:22.537Z,4.55
2022-09-20T18:51:49.975Z,5.35
2022-09-20T18:54:17.638Z,4.47
2022-09-20T18:56:48.324Z,3.95
2022-09-20T18:59:19.940Z,3.22
2022-09-20T19:01:53.277Z,2.45
2022-09-20T19:04:29.362Z,2.22
2022-09-20T19:07:10.849Z,2.53
2022-09-20T19:09:38.150Z,2.60
2022-09-20T19:12:08.978Z,2.53
2022-09-20T19:14:51.166Z,2.67
2022-09-20T19:17:24.408Z,3.47
2022-09-20T19:20:01.319Z,2.40
2022-09-20T19:22:47.106Z,2.97
2022-09-20T19:25:30.766Z,2.78
2022-09-20T19:27:57.683Z,3.22
2022-09-20T19:30:25.281Z,2.80
2022-09-20T19:32:52.818Z,3.05
2022-09-20T19:35:22.527Z,2.75
2022-09-20T19:38:04.016Z,2.72
2022-09-20T19:40:32.892Z,3.03
2022-09-20T19:43:13.706Z,3.33
2022-09-20T19:46:00.276Z,2.50
2022-09-20T19:48:39.339Z,2.72
2022-09-20T19:51:10.167Z,2.80
2022-09-20T19:53:37.784Z,3.20
2022-09-20T19:56:21.488Z,3.25
2022-09-20T19:58:52.837Z,3.97
2022-09-20T20:01:22.422Z,4.97
2022-09-20T20:03:50.539Z,5.43
2022-09-20T20:06:23.566Z,5.55
2022-09-20T20:08:55.771Z,5.97
2022-09-20T20:11:29.039Z,6.85
2022-09-20T20:14:14.650Z,8.00
2022-09-20T20:17:00.954Z,7.97
2022-09-20T20:19:48.054Z,8.02
2022-09-20T20:22:21.237Z,7.55
2022-09-20T20:24:51.918Z,6.68
2022-09-20T20:27:19.807Z,5.15
2022-09-20T20:29:48.542Z,4.40
2022-09-20T20:32:16.243Z,4.38
2022-09-20T20:34:43.376Z,4.63
2022-09-20T20:37:13.867Z,4.13
2022-09-20T20:39:40.902Z,4.15
2022-09-20T20:42:11.849Z,4.40
2022-09-20T20:44:38.910Z,4.07
2022-09-20T20:47:06.756Z,3.80
2022-09-20T20:49:34.093Z,3.28
2022-09-20T20:52:04.613Z,3.38
2022-09-20T20:54:32.142Z,3.17
2022-09-20T20:56:59.500Z,3.28
2022-09-20T20:59:26.651Z,3.40
2022-09-20T21:01:54.086Z,3.00
2022-09-20T21:04:21.530Z,3.00
2022-09-20T21:06:50.036Z,2.88
2022-09-20T21:09:16.739Z,2.63
2022-09-20T21:11:44.203Z,2.25
2022-09-20T21:14:12.429Z,2.45
2022-09-20T21:16:42.384Z,2.75
2022-09-20T21:19:10.394Z,2.72
2022-09-20T21:21:38.708Z,3.20
2022-09-20T21:24:07.126Z,2.55
2022-09-20T21:26:35.536Z,2.95
2022-09-20T21:29:04.169Z,2.72
2022-09-20T21:31:32.265Z,2.90
2022-09-20T21:33:59.642Z,2.72
2022-09-20T21:36:27.651Z,2.10
2022-09-20T21:38:54.742Z,2.13
2022-09-20T21:41:23.091Z,2.00
2022-09-20T21:43:53.135Z,2.10
2022-09-20T21:46:21.321Z,2.35
2022-09-20T21:48:51.266Z,2.33
2022-09-20T21:51:19.155Z,2.03
2022-09-20T21:53:46.765Z,2.47
2022-09-20T21:56:16.099Z,2.75
2022-09-20T21:58:43.219Z,2.47
2022-09-20T22:01:12.030Z,2.80
2022-09-20T22:03:40.175Z,3.10
2022-09-20T22:06:08.669Z,2.75
2022-09-20T22:08:36.965Z,3.22
2022-09-20T22:11:04.598Z,2.83
2022-09-20T22:13:31.735Z,2.75
2022-09-20T22:16:05.405Z,2.80
2022-09-20T22:18:36.911Z,2.15
2022-09-20T22:21:04.917Z,2.40
2022-09-20T22:23:31.852Z,2.22
2022-09-20T22:26:00.054Z,2.80
2022-09-20T22:28:27.442Z,2.53
2022-09-20T22:30:54.796Z,2.85
2022-09-20T22:33:25.192Z,2.75
2022-09-20T22:35:52.543Z,2.80
2022-09-20T22:38:22.661Z,2.53
2022-09-20T22:40:57.378Z,2.60
2022-09-20T22:43:24.650Z,2.90
2022-09-20T22:45:51.876Z,2.60
2022-09-20T22:48:19.250Z,2.45
2022-09-20T22:50:46.537Z,2.33
2022-09-20T22:53:13.911Z,2.33
2022-09-20T22:55:41.162Z,2.83
2022-09-20T22:58:08.566Z,2.42
2022-09-20T23:00:35.833Z,2.40
2022-09-20T23:03:03.241Z,2.13
2022-09-20T23:05:30.421Z,3.15
2022-09-20T23:07:57.626Z,2.72
2022-09-20T23:10:24.916Z,2.38
2022-09-20T23:12:52.639Z,2.63
2022-09-20T23:15:19.913Z,2.92
2022-09-20T23:17:47.158Z,2.20
2022-09-20T23:20:18.331Z,2.70
2022-09-20T23:22:45.546Z,2.30
2022-09-20T23:25:12.750Z,2.20
2022-09-20T23:27:39.933Z,2.92
2022-09-20T23:30:07.601Z,2.38
2022-09-20T23:32:34.761Z,2.15
2022-09-20T23:35:02.102Z,2.40
2022-09-20T23:37:29.322Z,2.65
2022-09-20T23:39:56.116Z,2.92
2022-09-20T23:42:23.285Z,2.50
2022-09-20T23:44:50.472Z,2.90
2022-09-20T23:47:17.679Z,2.25
2022-09-20T23:49:44.899Z,2.33
2022-09-20T23:52:12.099Z,3.03
2022-09-20T23:54:39.337Z,2.50
2022-09-20T23:57:06.501Z,2.60
2022-09-20T23:59:34.116Z,2.20
